Time;durP1;ratioP1;P1;durP2;ratioP2;P2;SDS_P1;SDS_P2;PMS_P1;PMS_P2;Temp;Humidity;BMP_temperature;BMP_pressure;BME280_temperature;BME280_humidity;BME280_pressure;Samples;Min_cycle;Max_cycle;Signal;HPM_P1;HPM_P2
2024/01/19 00:00:25;;;;;;;8.90;5.50;;;9.00;96.50;;;;;;5092914;28;20099;-41
2024/01/19 00:02:51;;;;;;;8.75;5.07;;;9.00;96.50;;;;;;5093058;28;20024;-39
2024/01/19 00:05:18;;;;;;;6.65;4.90;;;9.00;96.50;;;;;;5092453;28;20024;-44
2024/01/19 00:07:44;;;;;;;8.13;5.07;;;9.00;96.50;;;;;;5092455;28;20016;-43
2024/01/19 00:10:09;;;;;;;7.15;4.90;;;9.00;96.50;;;;;;5092484;28;20024;-42
2024/01/19 00:12:35;;;;;;;6.30;4.72;;;9.00;96.50;;;;;;5092663;28;20466;-39
2024/01/19 00:15:06;;;;;;;8.30;5.35;;;9.00;96.50;;;;;;5092685;28;20077;-43
2024/01/19 00:17:31;;;;;;;7.28;5.07;;;9.00;96.50;;;;;;5092385;28;20020;-43
2024/01/19 00:19:57;;;;;;;6.75;4.93;;;9.00;96.50;;;;;;5092527;28;20440;-43
2024/01/19 00:22:22;;;;;;;7.57;5.20;;;9.00;96.50;;;;;;5092650;28;20032;-43
2024/01/19 00:24:48;;;;;;;7.85;4.88;;;9.00;96.50;;;;;;5092627;28;20363;-43
2024/01/19 00:27:13;;;;;;;7.88;4.70;;;9.00;96.60;;;;;;5093295;28;20028;-43
2024/01/19 00:29:41;;;;;;;6.68;4.38;;;9.00;96.60;;;;;;5092312;28;20048;-42
2024/01/19 00:32:06;;;;;;;7.18;4.65;;;9.00;96.60;;;;;;5092282;28;20122;-42
2024/01/19 00:34:32;;;;;;;8.73;4.90;;;9.00;96.60;;;;;;5091886;28;20024;-43
2024/01/19 00:36:58;;;;;;;6.78;4.70;;;8.90;96.60;;;;;;5091966;28;20495;-43
2024/01/19 00:39:23;;;;;;;6.63;4.68;;;8.90;96.60;;;;;;5091282;28;20053;-43
2024/01/19 00:41:49;;;;;;;7.28;4.97;;;8.90;96.60;;;;;;5091969;28;20035;-43
2024/01/19 00:44:14;;;;;;;7.60;4.97;;;9.00;96.60;;;;;;5091667;28;20032;-43
2024/01/19 00:46:40;;;;;;;7.28;4.65;;;8.90;96.60;;;;;;5091829;28;20069;-42
2024/01/19 00:49:06;;;;;;;7.00;4.97;;;8.90;96.60;;;;;;5092318;28;20047;-43
2024/01/19 00:51:31;;;;;;;6.25;4.35;;;8.90;96.60;;;;;;5091820;28;20416;-43
2024/01/19 00:53:57;;;;;;;7.82;4.32;;;8.90;96.60;;;;;;5091973;28;20055;-42
2024/01/19 00:56:23;;;;;;;7.63;4.90;;;8.90;96.90;;;;;;5091644;28;20023;-43
2024/01/19 00:58:48;;;;;;;7.15;4.43;;;8.90;96.60;;;;;;5092488;28;20490;-43
2024/01/19 01:01:14;;;;;;;6.47;4.50;;;8.90;96.60;;;;;;5092037;28;20039;-39
2024/01/19 01:03:40;;;;;;;7.57;5.10;;;8.90;96.60;;;;;;5092403;28;20091;-43
2024/01/19 01:06:05;;;;;;;8.88;5.40;;;8.90;96.60;;;;;;5092811;28;20028;-41
2024/01/19 01:08:34;;;;;;;7.22;5.00;;;8.90;97.00;;;;;;5091531;28;20024;-40
2024/01/19 01:11:00;;;;;;;7.15;4.80;;;8.90;96.80;;;;;;5091589;28;20103;-42
2024/01/19 01:13:26;;;;;;;6.45;4.63;;;8.90;96.70;;;;;;5091578;28;20517;-43
2024/01/19 01:15:51;;;;;;;7.55;4.68;;;8.90;96.60;;;;;;5091405;28;20073;-40
2024/01/19 01:18:19;;;;;;;6.22;4.35;;;8.90;96.70;;;;;;5091290;28;20032;-42
2024/01/19 01:20:45;;;;;;;7.05;4.93;;;8.90;96.60;;;;;;5091377;28;20035;-42
2024/01/19 01:23:10;;;;;;;7.30;4.95;;;8.90;96.70;;;;;;5091281;28;20024;-43
2024/01/19 01:25:36;;;;;;;7.18;5.45;;;8.90;96.70;;;;;;5091582;28;20123;-43
2024/01/19 01:28:02;;;;;;;7.18;5.10;;;8.90;96.70;;;;;;5091163;28;20020;-43
2024/01/19 01:30:28;;;;;;;5.82;4.57;;;8.90;96.70;;;;;;5091265;28;20547;-43
2024/01/19 01:32:53;;;;;;;7.80;4.97;;;8.90;96.70;;;;;;5091552;28;20028;-43
2024/01/19 01:35:19;;;;;;;8.23;4.90;;;8.90;96.70;;;;;;5091994;28;20028;-42
2024/01/19 01:37:45;;;;;;;7.38;4.57;;;8.90;96.70;;;;;;5091531;28;20074;-43
2024/01/19 01:40:11;;;;;;;7.07;4.88;;;8.90;96.70;;;;;;5090935;28;20028;-43
2024/01/19 01:42:37;;;;;;;7.57;4.65;;;8.80;96.70;;;;;;5091164;28;20020;-43
2024/01/19 01:45:04;;;;;;;7.60;4.78;;;8.80;96.70;;;;;;5091087;28;20028;-38
2024/01/19 01:47:30;;;;;;;6.45;4.70;;;8.80;96.70;;;;;;5091389;28;20037;-43
2024/01/19 01:49:56;;;;;;;7.13;4.95;;;8.90;96.70;;;;;;5091197;28;20406;-40
2024/01/19 01:52:22;;;;;;;6.43;4.72;;;8.90;96.70;;;;;;5094138;28;20036;-41
2024/01/19 01:54:48;;;;;;;8.32;4.95;;;8.80;96.70;;;;;;5094922;28;20037;-43
2024/01/19 01:57:14;;;;;;;9.13;5.43;;;8.90;96.70;;;;;;5095075;28;20038;-38
2024/01/19 01:59:41;;;;;;;6.97;4.70;;;8.80;96.70;;;;;;5095522;28;20035;-42
2024/01/19 02:02:07;;;;;;;7.32;4.70;;;8.80;96.70;;;;;;5095091;28;20024;-43
2024/01/19 02:04:34;;;;;;;6.72;4.63;;;8.80;96.70;;;;;;5095028;28;20028;-42
2024/01/19 02:07:00;;;;;;;6.88;4.55;;;8.80;96.70;;;;;;5095382;28;20109;-43
2024/01/19 02:09:26;;;;;;;5.97;4.13;;;8.90;96.80;;;;;;5095060;28;20494;-43
2024/01/19 02:11:53;;;;;;;8.63;4.72;;;8.80;96.70;;;;;;5094923;28;20398;-43
2024/01/19 02:14:18;;;;;;;7.28;4.10;;;8.80;96.70;;;;;;5095133;28;20031;-43
2024/01/19 02:16:44;;;;;;;9.07;5.32;;;8.80;96.70;;;;;;5095130;28;20024;-43
2024/01/19 02:19:10;;;;;;;6.90;4.70;;;8.90;96.80;;;;;;5095281;28;20069;-43
2024/01/19 02:21:36;;;;;;;6.65;4.43;;;8.80;96.70;;;;;;5095398;28;20044;-40
2024/01/19 02:24:04;;;;;;;7.50;4.75;;;8.80;96.70;;;;;;5094360;28;20032;-43
2024/01/19 02:26:31;;;;;;;8.00;4.70;;;8.80;96.70;;;;;;5094360;28;20124;-39
2024/01/19 02:28:57;;;;;;;6.13;4.47;;;8.80;96.70;;;;;;5094448;28;20020;-43
2024/01/19 02:31:23;;;;;;;7.40;4.85;;;8.80;96.70;;;;;;5094500;28;20592;-39
2024/01/19 02:33:48;;;;;;;5.80;4.30;;;8.80;96.70;;;;;;5094333;28;20107;-43
2024/01/19 02:36:14;;;;;;;6.70;4.57;;;8.80;96.70;;;;;;5094300;28;20112;-43
2024/01/19 02:38:39;;;;;;;6.60;4.72;;;8.80;96.70;;;;;;5094026;28;20106;-43
2024/01/19 02:41:05;;;;;;;6.35;4.65;;;8.80;96.70;;;;;;5094757;28;20058;-43
2024/01/19 02:43:31;;;;;;;5.53;4.22;;;8.80;96.70;;;;;;5094315;28;20035;-43
2024/01/19 02:45:56;;;;;;;6.70;4.45;;;8.80;96.70;;;;;;5094211;28;20098;-43
2024/01/19 02:48:22;;;;;;;8.32;4.65;;;8.80;96.70;;;;;;5094116;28;20028;-43
2024/01/19 02:50:48;;;;;;;6.50;4.50;;;8.80;96.70;;;;;;5093953;28;20024;-43
2024/01/19 02:53:13;;;;;;;8.20;5.07;;;8.80;96.70;;;;;;5093987;28;20028;-43
2024/01/19 02:55:39;;;;;;;6.57;4.70;;;8.80;96.70;;;;;;5094003;28;20077;-43
2024/01/19 02:58:04;;;;;;;7.78;4.72;;;8.80;96.70;;;;;;5094223;28;20107;-41
2024/01/19 03:00:30;;;;;;;7.50;4.70;;;8.80;96.80;;;;;;5094194;28;20032;-43
2024/01/19 03:02:56;;;;;;;6.70;4.13;;;8.80;96.70;;;;;;5093745;28;20111;-43
2024/01/19 03:05:21;;;;;;;6.03;4.25;;;8.80;96.70;;;;;;5093618;28;20081;-41
2024/01/19 03:07:47;;;;;;;7.43;4.75;;;8.80;96.70;;;;;;5093753;28;20052;-43
2024/01/19 03:10:12;;;;;;;6.40;4.35;;;8.80;96.70;;;;;;5093677;28;20032;-36
2024/01/19 03:12:38;;;;;;;5.63;4.40;;;8.80;96.80;;;;;;5093624;28;20024;-43
2024/01/19 03:15:04;;;;;;;6.53;4.13;;;8.80;96.80;;;;;;5093710;28;20508;-42
2024/01/19 03:17:30;;;;;;;6.72;4.47;;;8.80;96.80;;;;;;5094016;28;20055;-43
2024/01/19 03:19:56;;;;;;;6.82;4.55;;;8.80;96.80;;;;;;5093447;28;20047;-42
2024/01/19 03:22:22;;;;;;;6.70;4.50;;;8.80;96.90;;;;;;5093740;28;20024;-43
2024/01/19 03:24:48;;;;;;;6.70;4.63;;;8.80;96.90;;;;;;5093232;28;20032;-40
2024/01/19 03:27:14;;;;;;;7.68;4.40;;;8.90;96.90;;;;;;5093422;28;20367;-40
2024/01/19 03:29:40;;;;;;;5.55;4.30;;;8.90;96.80;;;;;;5093511;28;20398;-43
2024/01/19 03:32:05;;;;;;;7.95;4.80;;;8.90;96.80;;;;;;5094563;28;20028;-43
2024/01/19 03:34:31;;;;;;;6.57;4.15;;;8.90;96.70;;;;;;5093461;28;20448;-42
2024/01/19 03:37:03;;;;;;;9.75;4.88;;;9.00;96.60;;;;;;5093326;28;20017;-43
2024/01/19 03:39:32;;;;;;;8.43;4.93;;;9.00;96.50;;;;;;5093118;28;20475;-43
2024/01/19 03:41:58;;;;;;;8.00;4.68;;;9.00;96.40;;;;;;5093163;28;20028;-43
2024/01/19 03:44:23;;;;;;;7.38;5.03;;;9.10;96.30;;;;;;5093289;28;20496;-38
2024/01/19 03:46:50;;;;;;;7.05;4.80;;;9.10;96.60;;;;;;5091517;28;20024;-39
2024/01/19 03:49:15;;;;;;;11.43;5.65;;;9.10;97.10;;;;;;5093143;28;20432;-40
2024/01/19 03:52:07;;;;;;;6.30;4.82;;;9.40;97.10;;;;;;5093574;28;20486;-38
2024/01/19 03:54:34;;;;;;;6.88;4.75;;;10.00;96.60;;;;;;5092989;28;20034;-43
2024/01/19 03:57:02;;;;;;;8.00;5.32;;;10.50;95.60;;;;;;5093162;28;20063;-37
2024/01/19 03:59:28;;;;;;;7.30;5.20;;;10.80;94.40;;;;;;5092568;28;20028;-43
2024/01/19 04:01:55;;;;;;;6.88;5.00;;;10.90;93.80;;;;;;5092686;28;20062;-42
2024/01/19 04:04:21;;;;;;;8.05;5.07;;;10.90;93.60;;;;;;5092591;28;20024;-41
2024/01/19 04:06:47;;;;;;;9.13;4.78;;;10.80;93.40;;;;;;5092700;28;20378;-41
2024/01/19 04:09:15;;;;;;;8.52;4.63;;;10.70;93.40;;;;;;5092518;28;20023;-44
2024/01/19 04:11:41;;;;;;;7.05;4.80;;;10.60;93.50;;;;;;5092933;28;20462;-43
2024/01/19 04:14:08;;;;;;;6.88;4.65;;;10.60;93.60;;;;;;5091508;28;20422;-43
2024/01/19 04:16:33;;;;;;;7.90;4.68;;;10.40;94.30;;;;;;5092341;28;20103;-42
2024/01/19 04:18:59;;;;;;;7.38;4.65;;;10.60;94.60;;;;;;5092493;28;20120;-43
2024/01/19 04:21:24;;;;;;;6.63;4.63;;;10.90;94.20;;;;;;5091066;28;20397;-43
2024/01/19 04:23:50;;;;;;;6.13;4.55;;;11.00;93.40;;;;;;5092256;28;20024;-40
2024/01/19 04:26:15;;;;;;;6.22;5.03;;;11.00;93.10;;;;;;5092165;28;20063;-42
2024/01/19 04:28:41;;;;;;;7.40;4.60;;;10.90;93.00;;;;;;5092077;28;20031;-43
2024/01/19 04:31:07;;;;;;;6.78;4.93;;;10.80;93.00;;;;;;5092150;28;20024;-43
2024/01/19 04:33:33;;;;;;;6.90;5.00;;;10.70;93.10;;;;;;5092066;28;20016;-43
2024/01/19 04:35:59;;;;;;;7.40;4.85;;;10.60;93.20;;;;;;5092083;28;20141;-43
2024/01/19 04:38:25;;;;;;;6.60;4.68;;;10.50;93.90;;;;;;5093008;28;20044;-36
2024/01/19 04:40:50;;;;;;;6.78;4.57;;;10.60;94.30;;;;;;5092046;28;20032;-43
2024/01/19 04:43:17;;;;;;;7.50;4.80;;;10.90;94.00;;;;;;5091880;28;20523;-43
2024/01/19 04:45:44;;;;;;;7.85;5.00;;;11.10;93.20;;;;;;5091999;28;20024;-43
2024/01/19 04:48:09;;;;;;;7.05;4.57;;;11.00;92.80;;;;;;5092154;28;20508;-43
2024/01/19 04:50:35;;;;;;;7.63;4.95;;;10.90;92.80;;;;;;5092902;28;20067;-40
2024/01/19 04:53:01;;;;;;;7.10;4.50;;;10.80;92.80;;;;;;5092081;28;20063;-43
2024/01/19 04:55:26;;;;;;;6.07;4.53;;;10.70;92.90;;;;;;5091758;28;20064;-43
2024/01/19 04:57:52;;;;;;;8.60;4.75;;;10.60;93.00;;;;;;5091512;28;20107;-43
2024/01/19 05:00:18;;;;;;;7.05;4.55;;;10.50;93.70;;;;;;5091624;28;20404;-43
2024/01/19 05:02:44;;;;;;;7.00;4.85;;;10.50;94.20;;;;;;5091680;28;20409;-40
2024/01/19 05:05:10;;;;;;;6.50;4.80;;;10.80;94.00;;;;;;5091519;28;20046;-43
2024/01/19 05:07:35;;;;;;;8.13;5.07;;;11.00;93.20;;;;;;5091818;28;20054;-43
2024/01/19 05:10:01;;;;;;;6.63;4.95;;;11.00;92.80;;;;;;5091448;28;20071;-43
2024/01/19 05:12:26;;;;;;;6.15;4.60;;;11.00;92.70;;;;;;5091917;28;20102;-41
2024/01/19 05:14:52;;;;;;;7.15;4.60;;;10.80;92.70;;;;;;5091727;28;20024;-39
2024/01/19 05:17:18;;;;;;;7.22;4.43;;;10.70;92.80;;;;;;5091435;28;20114;-43
2024/01/19 05:19:44;;;;;;;7.78;4.97;;;10.60;92.90;;;;;;5091776;28;20097;-36
2024/01/19 05:22:10;;;;;;;6.28;4.32;;;10.50;93.40;;;;;;5091730;28;20024;-43
2024/01/19 05:24:40;;;;;;;9.43;4.68;;;10.50;94.00;;;;;;5091342;28;20055;-42
2024/01/19 05:27:07;;;;;;;6.70;4.30;;;10.80;94.00;;;;;;5091567;28;20024;-40
2024/01/19 05:29:32;;;;;;;5.75;4.47;;;11.00;93.20;;;;;;5091630;28;20016;-42
2024/01/19 05:31:58;;;;;;;7.63;4.82;;;11.00;92.70;;;;;;5091447;28;20051;-43
2024/01/19 05:34:23;;;;;;;7.53;4.70;;;10.90;92.60;;;;;;5091205;28;20020;-38
2024/01/19 05:36:49;;;;;;;6.53;4.63;;;10.90;92.70;;;;;;5091769;28;20517;-42
2024/01/19 05:39:15;;;;;;;6.85;4.50;;;10.70;92.70;;;;;;5091087;28;20108;-43
2024/01/19 05:41:40;;;;;;;6.88;4.65;;;10.60;92.90;;;;;;5091221;28;20063;-43
2024/01/19 05:44:06;;;;;;;7.68;4.40;;;10.50;93.30;;;;;;5091209;28;20059;-43
2024/01/19 05:46:31;;;;;;;6.05;3.90;;;10.50;94.00;;;;;;5090995;28;20074;-43
2024/01/19 05:48:57;;;;;;;7.13;4.65;;;10.70;94.00;;;;;;5091079;28;20028;-43
2024/01/19 05:51:23;;;;;;;8.40;4.75;;;11.00;93.20;;;;;;5091246;28;20052;-43
2024/01/19 05:53:48;;;;;;;6.30;4.70;;;11.00;92.70;;;;;;5091069;28;20028;-42
2024/01/19 05:56:14;;;;;;;6.75;4.20;;;11.00;92.60;;;;;;5089708;28;20020;-43
2024/01/19 05:58:40;;;;;;;5.72;4.60;;;10.90;92.60;;;;;;5091641;28;20081;-41
2024/01/19 06:01:06;;;;;;;6.35;4.13;;;10.70;92.70;;;;;;5091296;28;20024;-43
2024/01/19 06:03:35;;;;;;;5.85;4.22;;;10.60;92.80;;;;;;5090954;28;20099;-39
2024/01/19 06:06:02;;;;;;;6.72;4.75;;;10.50;93.10;;;;;;5091398;28;20501;-38
2024/01/19 06:08:28;;;;;;;7.47;4.40;;;10.50;93.90;;;;;;5091516;28;20039;-42
2024/01/19 06:10:54;;;;;;;7.32;4.85;;;10.70;94.00;;;;;;5090934;28;20020;-43
2024/01/19 06:13:20;;;;;;;6.88;4.70;;;10.90;93.20;;;;;;5091282;28;20027;-43
2024/01/19 06:15:46;;;;;;;7.22;5.05;;;11.00;92.70;;;;;;5090887;28;20028;-38
2024/01/19 06:18:11;;;;;;;6.40;4.57;;;10.90;92.60;;;;;;5090813;28;20036;-37
2024/01/19 06:20:43;;;;;;;6.63;4.63;;;10.90;92.60;;;;;;5090899;28;20020;-40
2024/01/19 06:23:09;;;;;;;8.77;5.40;;;10.70;92.70;;;;;;5091358;28;20035;-40
2024/01/19 06:25:36;;;;;;;7.60;4.82;;;10.60;92.80;;;;;;5090701;28;20043;-42
2024/01/19 06:28:02;;;;;;;8.13;5.35;;;10.50;93.00;;;;;;5090822;28;20024;-43
2024/01/19 06:30:28;;;;;;;6.85;4.15;;;10.40;93.80;;;;;;5090725;28;20028;-43
2024/01/19 06:32:53;;;;;;;10.60;5.35;;;10.60;94.00;;;;;;5090923;28;20024;-43
2024/01/19 06:35:19;;;;;;;8.52;4.88;;;10.90;93.20;;;;;;5090872;28;20035;-43
2024/01/19 06:37:45;;;;;;;8.65;5.35;;;11.00;92.70;;;;;;5092009;28;20046;-43
2024/01/19 06:40:10;;;;;;;8.73;5.22;;;10.90;92.50;;;;;;5094283;28;20127;-40
2024/01/19 06:42:37;;;;;;;8.63;5.28;;;10.90;92.50;;;;;;5094200;28;20044;-43
2024/01/19 06:45:04;;;;;;;6.60;5.28;;;10.70;92.60;;;;;;5092761;28;20111;-41
2024/01/19 06:47:29;;;;;;;7.05;4.78;;;10.60;92.80;;;;;;5094142;28;20466;-42
2024/01/19 06:49:55;;;;;;;8.55;5.25;;;10.50;92.90;;;;;;5094647;28;20081;-43
2024/01/19 06:52:21;;;;;;;10.90;5.47;;;10.40;93.70;;;;;;5094031;28;20027;-40
2024/01/19 06:54:46;;;;;;;7.03;5.03;;;10.60;93.90;;;;;;5093984;28;20031;-43
2024/01/19 06:57:12;;;;;;;9.55;5.43;;;10.90;93.30;;;;;;5093913;28;20028;-42
2024/01/19 06:59:37;;;;;;;8.52;5.30;;;11.00;92.70;;;;;;5093928;28;20028;-40
2024/01/19 07:02:04;;;;;;;8.60;5.28;;;10.90;92.50;;;;;;5093928;28;20397;-43
2024/01/19 07:04:30;;;;;;;6.65;4.30;;;10.80;92.40;;;;;;5093699;28;20093;-43
2024/01/19 07:06:55;;;;;;;8.65;5.38;;;10.70;92.50;;;;;;5093560;28;20474;-39
2024/01/19 07:09:21;;;;;;;7.68;5.00;;;10.60;92.70;;;;;;5093672;28;20074;-39
2024/01/19 07:11:46;;;;;;;8.02;5.05;;;10.50;92.80;;;;;;5093701;28;20413;-40
2024/01/19 07:14:12;;;;;;;7.90;4.95;;;10.40;93.60;;;;;;5093562;28;20039;-39
2024/01/19 07:16:43;;;;;;;7.85;5.15;;;10.50;93.90;;;;;;5093559;28;20028;-43
2024/01/19 07:19:08;;;;;;;7.53;4.80;;;10.90;93.30;;;;;;5094056;28;20030;-42
2024/01/19 07:21:40;;;;;;;9.98;5.50;;;11.00;92.60;;;;;;5093453;28;20016;-39
2024/01/19 07:24:11;;;;;;;7.72;5.10;;;11.00;92.40;;;;;;5093544;28;20040;-43
2024/01/19 07:26:37;;;;;;;8.02;5.15;;;10.90;92.40;;;;;;5093371;28;20020;-39
2024/01/19 07:29:07;;;;;;;7.90;5.22;;;10.80;92.40;;;;;;5093945;28;20098;-43
2024/01/19 07:31:36;;;;;;;8.38;5.18;;;10.70;92.50;;;;;;5093767;28;20016;-43
2024/01/19 07:34:02;;;;;;;8.85;5.32;;;10.60;92.70;;;;;;5093124;28;20027;-41
2024/01/19 07:36:28;;;;;;;12.52;7.30;;;10.50;93.40;;;;;;5093249;28;20077;-43
2024/01/19 07:38:54;;;;;;;14.55;9.73;;;10.70;93.60;;;;;;5092951;28;20031;-43
2024/01/19 07:41:20;;;;;;;12.27;7.93;;;11.00;93.20;;;;;;5093590;28;20085;-43
2024/01/19 07:43:45;;;;;;;10.60;6.82;;;11.10;92.40;;;;;;5091669;28;20028;-40
2024/01/19 07:46:12;;;;;;;11.68;6.15;;;11.10;92.20;;;;;;5092976;28;20020;-43
2024/01/19 07:48:38;;;;;;;11.25;6.57;;;11.10;92.20;;;;;;5092705;28;20046;-43
2024/01/19 07:51:04;;;;;;;9.20;6.40;;;11.00;92.20;;;;;;5092993;28;20475;-43
2024/01/19 07:53:29;;;;;;;10.52;6.45;;;11.00;92.30;;;;;;5093172;28;20027;-43
2024/01/19 07:55:55;;;;;;;8.85;6.82;;;10.90;92.40;;;;;;5092900;28;20507;-41
2024/01/19 07:58:21;;;;;;;10.15;6.03;;;10.80;92.90;;;;;;5092703;28;20024;-39
2024/01/19 08:00:47;;;;;;;9.13;6.80;;;10.90;93.20;;;;;;5093846;28;20024;-41
2024/01/19 08:03:14;;;;;;;10.25;6.72;;;11.30;92.70;;;;;;5092605;28;20016;-40
2024/01/19 08:05:39;;;;;;;11.43;7.05;;;11.50;92.00;;;;;;5092592;28;20024;-43
2024/01/19 08:08:05;;;;;;;9.77;6.35;;;11.50;91.80;;;;;;5092527;28;20089;-38
2024/01/19 08:10:32;;;;;;;10.15;6.47;;;11.40;91.80;;;;;;5095013;28;20027;-42
2024/01/19 08:13:01;;;;;;;9.35;6.20;;;11.40;91.80;;;;;;5092996;28;20025;-43
2024/01/19 08:15:26;;;;;;;9.85;6.03;;;11.40;91.90;;;;;;5092741;28;20432;-43
2024/01/19 08:17:52;;;;;;;10.55;6.90;;;11.30;91.90;;;;;;5092375;28;20106;-43
2024/01/19 08:20:18;;;;;;;9.30;6.50;;;11.30;92.30;;;;;;5092400;28;20073;-43
2024/01/19 08:22:44;;;;;;;11.77;6.82;;;11.30;92.60;;;;;;5092508;28;20149;-43
2024/01/19 08:25:10;;;;;;;8.52;6.25;;;11.70;92.30;;;;;;5092164;28;20024;-43
2024/01/19 08:27:39;;;;;;;8.93;5.90;;;11.90;91.60;;;;;;5092222;28;20100;-43
2024/01/19 08:30:06;;;;;;;9.85;6.40;;;11.90;91.30;;;;;;5092498;28;20157;-43
2024/01/19 08:32:31;;;;;;;10.95;6.10;;;11.80;91.30;;;;;;5092183;28;20023;-43
2024/01/19 08:34:59;;;;;;;8.82;5.88;;;11.80;91.40;;;;;;5092899;28;20020;-44
2024/01/19 08:37:24;;;;;;;9.65;5.40;;;11.80;91.40;;;;;;5092226;28;20031;-44
2024/01/19 08:39:50;;;;;;;9.05;5.88;;;11.80;91.50;;;;;;5092638;28;20102;-43
2024/01/19 08:42:16;;;;;;;8.95;6.03;;;11.80;91.60;;;;;;5091788;28;20105;-43
2024/01/19 08:44:44;;;;;;;8.57;5.45;;;11.80;92.20;;;;;;5092303;28;20043;-40
2024/01/19 08:47:10;;;;;;;8.50;6.03;;;12.10;92.30;;;;;;5092315;28;20095;-43
2024/01/19 08:49:36;;;;;;;16.83;9.50;;;12.40;91.60;;;;;;5091844;28;20492;-39
2024/01/19 08:52:02;;;;;;;15.82;10.20;;;12.50;88.30;;;;;;5091937;28;20028;-38
2024/01/19 08:54:27;;;;;;;15.15;9.77;;;12.50;85.20;;;;;;5092015;28;20024;-43
2024/01/19 08:56:54;;;;;;;16.92;8.88;;;12.40;86.10;;;;;;5091894;28;20119;-43
2024/01/19 08:59:20;;;;;;;14.63;8.93;;;12.40;87.00;;;;;;5091575;28;20474;-43
2024/01/19 09:01:46;;;;;;;12.95;8.30;;;12.40;88.00;;;;;;5091318;28;20028;-44
2024/01/19 09:04:12;;;;;;;14.90;9.73;;;12.40;88.70;;;;;;5091705;28;20024;-43
2024/01/19 09:06:38;;;;;;;13.25;8.77;;;12.30;90.00;;;;;;5091774;28;20034;-43
2024/01/19 09:09:03;;;;;;;13.63;8.77;;;12.40;90.50;;;;;;5091745;28;20386;-41
2024/01/19 09:11:31;;;;;;;16.27;9.25;;;12.70;90.40;;;;;;5091787;28;20443;-43
2024/01/19 09:13:57;;;;;;;13.77;8.43;;;12.90;89.60;;;;;;5091555;28;20100;-43
2024/01/19 09:16:23;;;;;;;11.15;8.00;;;13.00;89.20;;;;;;5091463;28;20066;-43
2024/01/19 09:18:48;;;;;;;10.57;7.20;;;13.00;89.30;;;;;;5091504;28;20043;-43
2024/01/19 09:21:17;;;;;;;10.93;6.97;;;13.10;89.40;;;;;;5092265;28;20032;-43
2024/01/19 09:23:43;;;;;;;10.60;6.80;;;13.10;89.50;;;;;;5091883;28;20154;-40
2024/01/19 09:26:20;;;;;;;10.80;6.68;;;13.10;89.60;;;;;;5091131;28;20512;-44
2024/01/19 09:28:46;;;;;;;13.57;8.18;;;13.20;89.70;;;;;;5091295;28;20031;-43
2024/01/19 09:31:12;;;;;;;12.25;7.07;;;13.20;90.10;;;;;;5091592;28;20025;-39
2024/01/19 09:33:37;;;;;;;12.57;7.40;;;13.20;90.40;;;;;;5091371;28;20016;-43
2024/01/19 09:36:04;;;;;;;18.55;10.25;;;13.50;90.10;;;;;;5091811;28;20024;-43
2024/01/19 09:38:29;;;;;;;20.50;13.30;;;13.70;83.70;;;;;;5091336;28;20493;-44
2024/01/19 09:41:03;;;;;;;20.17;14.13;;;13.80;82.10;;;;;;5091932;28;20028;-44
2024/01/19 09:43:33;;;;;;;12.95;9.05;;;13.70;81.70;;;;;;5091330;28;20039;-43
2024/01/19 09:46:05;;;;;;;13.13;8.93;;;13.70;81.80;;;;;;5091321;28;20462;-43
2024/01/19 09:48:43;;;;;;;14.52;10.43;;;13.70;81.60;;;;;;5091140;28;20020;-44
2024/01/19 09:51:10;;;;;;;13.02;7.18;;;13.70;81.70;;;;;;5091227;28;20036;-43
2024/01/19 09:53:44;;;;;;;8.73;5.25;;;13.60;81.40;;;;;;5091043;28;20050;-44
2024/01/19 09:56:12;;;;;;;8.07;4.38;;;13.70;81.30;;;;;;5091100;28;20186;-44
2024/01/19 09:58:37;;;;;;;9.57;5.68;;;13.70;81.30;;;;;;5091073;28;20055;-44
2024/01/19 10:01:03;;;;;;;9.90;5.25;;;13.60;82.90;;;;;;5091881;28;20505;-44
2024/01/19 10:03:30;;;;;;;9.00;5.03;;;13.70;83.10;;;;;;5091936;28;20393;-43
2024/01/19 10:05:58;;;;;;;8.77;5.45;;;13.90;82.30;;;;;;5091515;28;20039;-44
2024/01/19 10:08:25;;;;;;;9.18;4.82;;;14.10;82.20;;;;;;5091131;28;20092;-44
2024/01/19 10:10:53;;;;;;;5.25;3.85;;;14.10;82.40;;;;;;5091801;28;20027;-44
2024/01/19 10:13:19;;;;;;;7.53;3.85;;;14.30;82.60;;;;;;5093311;28;20031;-44
2024/01/19 10:15:45;;;;;;;6.97;3.92;;;14.30;82.70;;;;;;5094847;28;20124;-43
2024/01/19 10:18:11;;;;;;;6.85;3.90;;;14.40;82.70;;;;;;5094549;28;20024;-43
2024/01/19 10:20:38;;;;;;;5.50;3.15;;;14.50;82.80;;;;;;5094973;28;20125;-43
2024/01/19 10:23:23;;;;;;;5.90;4.18;;;14.60;82.70;;;;;;5094615;28;20028;-43
2024/01/19 10:25:50;;;;;;;8.60;4.50;;;14.70;82.70;;;;;;5094481;28;20048;-44
2024/01/19 10:28:28;;;;;;;7.13;3.85;;;14.70;83.10;;;;;;5095202;28;20432;-43
2024/01/19 10:30:54;;;;;;;7.53;3.95;;;14.70;83.40;;;;;;5094608;28;20032;-45
2024/01/19 10:33:20;;;;;;;9.23;4.07;;;14.90;79.70;;;;;;5094847;28;20016;-43
2024/01/19 10:35:46;;;;;;;5.28;3.22;;;15.00;77.20;;;;;;5094790;28;20052;-43
2024/01/19 10:38:12;;;;;;;8.02;3.45;;;15.00;78.00;;;;;;5094536;28;20027;-45
2024/01/19 10:40:37;;;;;;;7.45;3.15;;;15.00;78.80;;;;;;5094973;28;20024;-44
2024/01/19 10:43:04;;;;;;;3.95;2.90;;;15.10;79.20;;;;;;5094172;28;20091;-45
2024/01/19 10:45:31;;;;;;;5.90;2.83;;;15.20;79.60;;;;;;5094217;28;20035;-45
2024/01/19 10:48:03;;;;;;;5.22;2.63;;;15.20;79.70;;;;;;5094454;28;20508;-44
2024/01/19 10:50:30;;;;;;;4.35;2.80;;;15.30;80.00;;;;;;5095261;28;20040;-45
2024/01/19 10:52:58;;;;;;;4.68;2.63;;;15.40;80.00;;;;;;5094799;28;20020;-45
2024/01/19 10:55:29;;;;;;;6.10;3.53;;;15.50;80.50;;;;;;5094075;28;20509;-45
2024/01/19 10:58:04;;;;;;;6.68;3.30;;;15.40;81.20;;;;;;5094668;28;20028;-43
2024/01/19 11:00:30;;;;;;;5.75;3.42;;;15.60;81.00;;;;;;5095430;28;20028;-43
2024/01/19 11:03:03;;;;;;;4.32;2.92;;;15.80;80.10;;;;;;5094370;28;20058;-44
2024/01/19 11:05:29;;;;;;;4.53;2.78;;;15.80;80.00;;;;;;5094394;28;20024;-44
2024/01/19 11:08:00;;;;;;;5.38;2.50;;;15.90;80.20;;;;;;5093717;28;20039;-43
2024/01/19 11:10:27;;;;;;;4.55;2.50;;;16.00;80.10;;;;;;5094656;28;20538;-43
2024/01/19 11:12:55;;;;;;;4.63;2.13;;;16.00;80.00;;;;;;5094546;28;20531;-45
2024/01/19 11:15:51;;;;;;;3.97;2.33;;;16.20;80.10;;;;;;5093966;28;20028;-42
2024/01/19 11:18:17;;;;;;;3.00;2.20;;;16.30;80.00;;;;;;5093794;28;20488;-45
2024/01/19 11:20:43;;;;;;;4.03;1.90;;;16.30;79.90;;;;;;5093535;28;20025;-43
2024/01/19 11:23:10;;;;;;;4.68;2.65;;;16.40;79.90;;;;;;5093025;28;20027;-44
2024/01/19 11:25:53;;;;;;;4.30;2.28;;;16.30;80.10;;;;;;5093413;28;20020;-43
2024/01/19 11:28:24;;;;;;;3.85;2.45;;;16.30;80.60;;;;;;5093375;28;20232;-45
2024/01/19 11:30:49;;;;;;;3.70;2.20;;;16.50;80.00;;;;;;5094133;28;20016;-44
2024/01/19 11:33:19;;;;;;;2.70;2.05;;;16.50;79.60;;;;;;5093773;28;20058;-43
2024/01/19 11:35:51;;;;;;;3.20;2.00;;;16.50;79.70;;;;;;5093537;28;20390;-44
2024/01/19 11:38:55;;;;;;;3.33;1.92;;;16.60;79.60;;;;;;5094598;28;20049;-45
2024/01/19 11:41:33;;;;;;;4.00;2.00;;;16.70;79.50;;;;;;5090667;28;20035;-44
2024/01/19 11:44:00;;;;;;;2.75;1.60;;;16.70;79.40;;;;;;5091161;28;20509;-44
2024/01/19 11:46:45;;;;;;;2.10;1.70;;;16.80;79.40;;;;;;5092336;28;20398;-43
2024/01/19 11:49:33;;;;;;;2.65;1.77;;;16.80;79.30;;;;;;5092988;28;20024;-44
2024/01/19 11:52:22;;;;;;;3.05;2.10;;;16.80;79.20;;;;;;5093147;28;20024;-44
2024/01/19 11:54:49;;;;;;;3.33;1.92;;;16.70;79.60;;;;;;5091425;28;20031;-45
2024/01/19 11:57:22;;;;;;;2.95;2.10;;;16.70;80.10;;;;;;5093026;28;20024;-44
2024/01/19 11:59:48;;;;;;;3.43;2.03;;;16.80;79.10;;;;;;5092808;28;20103;-45
2024/01/19 12:02:40;;;;;;;4.25;1.92;;;16.80;79.00;;;;;;5092758;28;20322;-43
2024/01/19 12:05:09;;;;;;;3.10;1.70;;;16.80;79.80;;;;;;5093127;28;20643;-44
2024/01/19 12:07:34;;;;;;;2.53;1.63;;;16.80;79.00;;;;;;5092843;28;20103;-45
2024/01/19 12:10:07;;;;;;;4.30;1.73;;;16.90;79.00;;;;;;5092608;28;20099;-43
2024/01/19 12:12:34;;;;;;;2.65;1.60;;;16.90;79.70;;;;;;5092438;28;20393;-43
2024/01/19 12:15:01;;;;;;;2.38;1.67;;;16.90;78.80;;;;;;5093538;28;20038;-44
2024/01/19 12:17:28;;;;;;;3.92;1.45;;;17.00;78.70;;;;;;5093335;28;20028;-42
2024/01/19 12:19:54;;;;;;;3.03;1.80;;;17.00;78.70;;;;;;5092420;28;20024;-45
2024/01/19 12:22:20;;;;;;;2.03;1.50;;;16.90;79.90;;;;;;5092407;28;20031;-43
2024/01/19 12:24:46;;;;;;;2.28;1.70;;;16.80;79.60;;;;;;5091991;28;20397;-43
2024/01/19 12:27:18;;;;;;;3.00;1.65;;;17.00;78.80;;;;;;5092120;28;20023;-43
2024/01/19 12:29:44;;;;;;;1.77;1.40;;;17.00;78.60;;;;;;5092389;28;20020;-43
2024/01/19 12:32:12;;;;;;;1.60;1.23;;;17.00;78.60;;;;;;5092472;28;20393;-44
2024/01/19 12:34:38;;;;;;;2.33;1.45;;;17.00;78.40;;;;;;5091768;28;20080;-44
2024/01/19 12:37:04;;;;;;;1.60;1.20;;;17.10;78.40;;;;;;5091917;28;20497;-44
2024/01/19 12:39:30;;;;;;;2.88;1.50;;;17.10;78.30;;;;;;5091785;28;20028;-44
2024/01/19 12:42:00;;;;;;;2.45;1.27;;;17.10;78.10;;;;;;5092455;28;20438;-43
2024/01/19 12:44:26;;;;;;;2.75;1.48;;;17.10;78.00;;;;;;5093248;28;20020;-44
2024/01/19 12:46:52;;;;;;;2.67;1.52;;;17.10;78.00;;;;;;5092092;28;20027;-44